sensor_id;sensor_type;location;lat;lon;timestamp;temperature;humidity
22698;DHT22;11516;51.612;7.510;2023-05-10T00:00:33;13.50;99.90
22698;DHT22;11516;51.612;7.510;2023-05-10T00:02:58;13.40;99.90
22698;DHT22;11516;51.612;7.510;2023-05-10T00:05:24;13.40;99.90
22698;DHT22;11516;51.612;7.510;2023-05-10T00:07:49;13.50;99.90
22698;DHT22;11516;51.612;7.510;2023-05-10T00:10:15;13.40;99.90
22698;DHT22;11516;51.612;7.510;2023-05-10T00:12:40;13.40;99.90
22698;DHT22;11516;51.612;7.510;2023-05-10T00:15:07;13.40;99.90
22698;DHT22;11516;51.612;7.510;2023-05-10T00:17:32;13.40;99.90
22698;DHT22;11516;51.612;7.510;2023-05-10T00:19:58;13.40;99.90
22698;DHT22;11516;51.612;7.510;2023-05-10T00:22:24;13.40;99.90
22698;DHT22;11516;51.612;7.510;2023-05-10T00:24:49;13.30;99.90
22698;DHT22;11516;51.612;7.510;2023-05-10T00:27:14;13.40;99.90
22698;DHT22;11516;51.612;7.510;2023-05-10T00:29:40;13.40;99.90
22698;DHT22;11516;51.612;7.510;2023-05-10T00:32:06;13.40;99.90
22698;DHT22;11516;51.612;7.510;2023-05-10T00:34:32;13.30;99.90
22698;DHT22;11516;51.612;7.510;2023-05-10T00:36:57;13.40;99.90
22698;DHT22;11516;51.612;7.510;2023-05-10T00:39:23;13.30;99.90
22698;DHT22;11516;51.612;7.510;2023-05-10T00:41:48;13.40;99.90
22698;DHT22;11516;51.612;7.510;2023-05-10T00:44:14;13.30;99.90
22698;DHT22;11516;51.612;7.510;2023-05-10T00:46:40;13.40;99.90
22698;DHT22;11516;51.612;7.510;2023-05-10T00:49:06;13.40;99.90
22698;DHT22;11516;51.612;7.510;2023-05-10T00:51:32;13.40;99.90
22698;DHT22;11516;51.612;7.510;2023-05-10T00:53:58;13.40;99.90
22698;DHT22;11516;51.612;7.510;2023-05-10T00:56:24;13.40;99.90
22698;DHT22;11516;51.612;7.510;2023-05-10T00:58:50;13.50;99.90
22698;DHT22;11516;51.612;7.510;2023-05-10T01:01:16;13.50;99.90
22698;DHT22;11516;51.612;7.510;2023-05-10T01:03:41;13.40;99.90
22698;DHT22;11516;51.612;7.510;2023-05-10T01:06:07;13.40;99.90
22698;DHT22;11516;51.612;7.510;2023-05-10T01:08:35;13.40;99.90
22698;DHT22;11516;51.612;7.510;2023-05-10T01:11:01;13.40;99.90
22698;DHT22;11516;51.612;7.510;2023-05-10T01:13:31;13.40;99.90
22698;DHT22;11516;51.612;7.510;2023-05-10T01:15:59;13.40;99.90
22698;DHT22;11516;51.612;7.510;2023-05-10T01:18:27;13.40;99.90
22698;DHT22;11516;51.612;7.510;2023-05-10T01:26:31;13.40;99.90
22698;DHT22;11516;51.612;7.510;2023-05-10T01:34:52;13.40;99.90
22698;DHT22;11516;51.612;7.510;2023-05-10T01:37:45;13.40;99.90
22698;DHT22;11516;51.612;7.510;2023-05-10T01:40:35;13.40;99.90
22698;DHT22;11516;51.612;7.510;2023-05-10T01:43:05;13.40;99.90
22698;DHT22;11516;51.612;7.510;2023-05-10T01:48:46;13.50;99.90
22698;DHT22;11516;51.612;7.510;2023-05-10T01:51:17;13.50;99.90
22698;DHT22;11516;51.612;7.510;2023-05-10T01:53:46;13.50;99.90
22698;DHT22;11516;51.612;7.510;2023-05-10T01:56:13;13.50;99.90
22698;DHT22;11516;51.612;7.510;2023-05-10T01:58:40;13.50;99.90
22698;DHT22;11516;51.612;7.510;2023-05-10T02:01:10;13.50;99.90
22698;DHT22;11516;51.612;7.510;2023-05-10T02:03:36;13.40;99.90
22698;DHT22;11516;51.612;7.510;2023-05-10T02:06:03;13.40;99.90
22698;DHT22;11516;51.612;7.510;2023-05-10T02:08:30;13.40;99.90
22698;DHT22;11516;51.612;7.510;2023-05-10T02:10:57;13.30;99.90
22698;DHT22;11516;51.612;7.510;2023-05-10T02:13:24;13.30;99.90
22698;DHT22;11516;51.612;7.510;2023-05-10T02:15:51;13.30;99.90
22698;DHT22;11516;51.612;7.510;2023-05-10T02:18:18;13.20;99.90
22698;DHT22;11516;51.612;7.510;2023-05-10T02:20:45;13.30;99.90
22698;DHT22;11516;51.612;7.510;2023-05-10T02:23:11;13.30;99.90
22698;DHT22;11516;51.612;7.510;2023-05-10T02:25:39;13.10;99.90
22698;DHT22;11516;51.612;7.510;2023-05-10T02:28:06;13.00;99.90
22698;DHT22;11516;51.612;7.510;2023-05-10T02:30:33;13.00;99.90
22698;DHT22;11516;51.612;7.510;2023-05-10T02:33:00;13.00;99.90
22698;DHT22;11516;51.612;7.510;2023-05-10T02:35:27;12.90;99.90
22698;DHT22;11516;51.612;7.510;2023-05-10T02:37:54;12.80;99.90
22698;DHT22;11516;51.612;7.510;2023-05-10T02:40:21;12.80;99.90
22698;DHT22;11516;51.612;7.510;2023-05-10T02:42:48;12.80;99.90
22698;DHT22;11516;51.612;7.510;2023-05-10T02:45:21;12.70;99.90
22698;DHT22;11516;51.612;7.510;2023-05-10T02:47:48;12.70;99.90
22698;DHT22;11516;51.612;7.510;2023-05-10T02:50:14;12.70;99.90
22698;DHT22;11516;51.612;7.510;2023-05-10T02:52:44;12.70;99.90
22698;DHT22;11516;51.612;7.510;2023-05-10T02:55:14;12.60;99.90
22698;DHT22;11516;51.612;7.510;2023-05-10T02:57:43;12.60;99.90
22698;DHT22;11516;51.612;7.510;2023-05-10T03:00:11;12.60;99.90
22698;DHT22;11516;51.612;7.510;2023-05-10T03:02:36;12.60;99.90
22698;DHT22;11516;51.612;7.510;2023-05-10T03:05:02;12.70;99.90
22698;DHT22;11516;51.612;7.510;2023-05-10T03:07:28;12.70;99.90
22698;DHT22;11516;51.612;7.510;2023-05-10T03:09:54;12.70;99.90
22698;DHT22;11516;51.612;7.510;2023-05-10T03:18:18;12.50;99.90
22698;DHT22;11516;51.612;7.510;2023-05-10T03:20:48;12.50;99.90
22698;DHT22;11516;51.612;7.510;2023-05-10T03:23:43;12.50;99.90
22698;DHT22;11516;51.612;7.510;2023-05-10T03:26:10;12.50;99.90
22698;DHT22;11516;51.612;7.510;2023-05-10T03:28:36;12.50;99.90
22698;DHT22;11516;51.612;7.510;2023-05-10T03:31:04;12.60;99.90
22698;DHT22;11516;51.612;7.510;2023-05-10T03:33:31;12.60;99.90
22698;DHT22;11516;51.612;7.510;2023-05-10T03:35:57;12.60;99.90
22698;DHT22;11516;51.612;7.510;2023-05-10T03:38:22;12.60;99.90
22698;DHT22;11516;51.612;7.510;2023-05-10T03:40:48;12.50;99.90
22698;DHT22;11516;51.612;7.510;2023-05-10T03:43:13;12.60;99.90
22698;DHT22;11516;51.612;7.510;2023-05-10T03:45:39;12.60;99.90
22698;DHT22;11516;51.612;7.510;2023-05-10T03:48:05;12.60;99.90
22698;DHT22;11516;51.612;7.510;2023-05-10T03:50:30;12.60;99.90
22698;DHT22;11516;51.612;7.510;2023-05-10T03:52:56;12.60;99.90
22698;DHT22;11516;51.612;7.510;2023-05-10T03:55:22;12.60;99.90
22698;DHT22;11516;51.612;7.510;2023-05-10T03:57:48;12.50;99.90
22698;DHT22;11516;51.612;7.510;2023-05-10T04:00:15;12.50;99.90
22698;DHT22;11516;51.612;7.510;2023-05-10T04:02:40;12.50;99.90
22698;DHT22;11516;51.612;7.510;2023-05-10T04:05:06;12.60;99.90
22698;DHT22;11516;51.612;7.510;2023-05-10T04:07:32;12.60;99.90
22698;DHT22;11516;51.612;7.510;2023-05-10T04:09:57;12.60;99.90
22698;DHT22;11516;51.612;7.510;2023-05-10T04:12:23;12.60;99.90
22698;DHT22;11516;51.612;7.510;2023-05-10T04:14:49;12.60;99.90
22698;DHT22;11516;51.612;7.510;2023-05-10T04:17:14;12.50;99.90
22698;DHT22;11516;51.612;7.510;2023-05-10T04:19:40;12.60;99.90
22698;DHT22;11516;51.612;7.510;2023-05-10T04:22:05;12.70;99.90
22698;DHT22;11516;51.612;7.510;2023-05-10T04:24:31;12.70;99.90
22698;DHT22;11516;51.612;7.510;2023-05-10T04:26:56;12.70;99.90
22698;DHT22;11516;51.612;7.510;2023-05-10T04:29:22;12.60;99.90
22698;DHT22;11516;51.612;7.510;2023-05-10T04:31:47;12.60;99.90
22698;DHT22;11516;51.612;7.510;2023-05-10T04:34:14;12.60;99.90
22698;DHT22;11516;51.612;7.510;2023-05-10T04:36:39;12.50;99.90
22698;DHT22;11516;51.612;7.510;2023-05-10T04:39:05;12.70;99.90
22698;DHT22;11516;51.612;7.510;2023-05-10T04:41:30;12.90;99.90
22698;DHT22;11516;51.612;7.510;2023-05-10T04:43:56;12.90;99.90
22698;DHT22;11516;51.612;7.510;2023-05-10T04:46:22;13.00;99.90
22698;DHT22;11516;51.612;7.510;2023-05-10T04:48:47;12.90;99.90
22698;DHT22;11516;51.612;7.510;2023-05-10T04:51:13;12.90;99.90
22698;DHT22;11516;51.612;7.510;2023-05-10T04:53:38;12.90;99.90
22698;DHT22;11516;51.612;7.510;2023-05-10T04:56:04;13.00;99.90
22698;DHT22;11516;51.612;7.510;2023-05-10T04:58:30;12.90;99.90
22698;DHT22;11516;51.612;7.510;2023-05-10T05:00:56;12.90;99.90
22698;DHT22;11516;51.612;7.510;2023-05-10T05:03:21;12.80;99.90
22698;DHT22;11516;51.612;7.510;2023-05-10T05:05:47;12.70;99.90
22698;DHT22;11516;51.612;7.510;2023-05-10T05:08:13;12.70;99.90
22698;DHT22;11516;51.612;7.510;2023-05-10T05:10:38;12.80;99.90
22698;DHT22;11516;51.612;7.510;2023-05-10T05:13:04;12.70;99.90
22698;DHT22;11516;51.612;7.510;2023-05-10T05:15:29;12.70;99.90
22698;DHT22;11516;51.612;7.510;2023-05-10T05:17:55;12.80;99.90
22698;DHT22;11516;51.612;7.510;2023-05-10T05:20:21;12.90;99.90
22698;DHT22;11516;51.612;7.510;2023-05-10T05:22:47;12.90;99.90
22698;DHT22;11516;51.612;7.510;2023-05-10T05:25:13;12.90;99.90
22698;DHT22;11516;51.612;7.510;2023-05-10T05:27:38;12.90;99.90
22698;DHT22;11516;51.612;7.510;2023-05-10T05:30:04;12.90;99.90
22698;DHT22;11516;51.612;7.510;2023-05-10T05:32:30;13.00;99.90
22698;DHT22;11516;51.612;7.510;2023-05-10T05:34:56;13.00;99.90
22698;DHT22;11516;51.612;7.510;2023-05-10T05:37:21;13.00;99.90
22698;DHT22;11516;51.612;7.510;2023-05-10T05:39:48;13.00;99.90
22698;DHT22;11516;51.612;7.510;2023-05-10T05:42:14;13.00;99.90
22698;DHT22;11516;51.612;7.510;2023-05-10T05:44:41;13.00;99.90
22698;DHT22;11516;51.612;7.510;2023-05-10T05:47:07;13.10;99.90
22698;DHT22;11516;51.612;7.510;2023-05-10T05:49:32;13.20;99.90
22698;DHT22;11516;51.612;7.510;2023-05-10T05:51:59;13.10;99.90
22698;DHT22;11516;51.612;7.510;2023-05-10T05:54:26;13.10;99.90
22698;DHT22;11516;51.612;7.510;2023-05-10T05:57:00;13.20;99.90
22698;DHT22;11516;51.612;7.510;2023-05-10T05:59:26;13.30;99.90
22698;DHT22;11516;51.612;7.510;2023-05-10T06:01:51;13.20;99.90
22698;DHT22;11516;51.612;7.510;2023-05-10T06:04:17;13.10;99.90
22698;DHT22;11516;51.612;7.510;2023-05-10T06:06:43;13.20;99.90
22698;DHT22;11516;51.612;7.510;2023-05-10T06:09:09;13.30;99.90
22698;DHT22;11516;51.612;7.510;2023-05-10T06:11:35;13.30;99.90
22698;DHT22;11516;51.612;7.510;2023-05-10T06:14:02;13.30;99.90
22698;DHT22;11516;51.612;7.510;2023-05-10T06:16:29;13.30;99.90
22698;DHT22;11516;51.612;7.510;2023-05-10T06:18:54;13.40;99.90
22698;DHT22;11516;51.612;7.510;2023-05-10T06:21:20;13.40;99.90
22698;DHT22;11516;51.612;7.510;2023-05-10T06:23:46;13.40;99.90
22698;DHT22;11516;51.612;7.510;2023-05-10T06:26:12;13.40;99.90
22698;DHT22;11516;51.612;7.510;2023-05-10T06:28:39;13.40;99.90
22698;DHT22;11516;51.612;7.510;2023-05-10T06:31:05;13.50;99.90
22698;DHT22;11516;51.612;7.510;2023-05-10T06:33:31;13.60;99.90
22698;DHT22;11516;51.612;7.510;2023-05-10T06:35:56;13.60;99.90
22698;DHT22;11516;51.612;7.510;2023-05-10T06:38:22;13.50;99.90
22698;DHT22;11516;51.612;7.510;2023-05-10T06:40:48;13.60;99.90
22698;DHT22;11516;51.612;7.510;2023-05-10T06:43:14;13.50;99.90
22698;DHT22;11516;51.612;7.510;2023-05-10T06:45:39;13.50;99.90
22698;DHT22;11516;51.612;7.510;2023-05-10T06:48:06;13.50;99.90
22698;DHT22;11516;51.612;7.510;2023-05-10T06:50:32;13.60;99.90
22698;DHT22;11516;51.612;7.510;2023-05-10T06:52:57;13.60;99.90
22698;DHT22;11516;51.612;7.510;2023-05-10T06:55:23;13.70;99.90
22698;DHT22;11516;51.612;7.510;2023-05-10T06:57:49;13.80;99.90
22698;DHT22;11516;51.612;7.510;2023-05-10T07:00:16;13.90;99.90
22698;DHT22;11516;51.612;7.510;2023-05-10T07:02:41;13.90;99.90
22698;DHT22;11516;51.612;7.510;2023-05-10T07:05:07;13.90;99.90
22698;DHT22;11516;51.612;7.510;2023-05-10T07:07:33;14.00;99.90
22698;DHT22;11516;51.612;7.510;2023-05-10T07:09:59;13.90;99.90
22698;DHT22;11516;51.612;7.510;2023-05-10T07:12:25;14.00;99.90
22698;DHT22;11516;51.612;7.510;2023-05-10T07:14:50;13.90;99.90
22698;DHT22;11516;51.612;7.510;2023-05-10T07:17:16;13.70;99.90
22698;DHT22;11516;51.612;7.510;2023-05-10T07:19:41;13.70;99.90
22698;DHT22;11516;51.612;7.510;2023-05-10T07:22:07;13.80;99.90
22698;DHT22;11516;51.612;7.510;2023-05-10T07:24:33;13.80;99.90
22698;DHT22;11516;51.612;7.510;2023-05-10T07:26:59;13.80;99.90
22698;DHT22;11516;51.612;7.510;2023-05-10T07:29:24;13.90;99.90
22698;DHT22;11516;51.612;7.510;2023-05-10T07:31:50;14.10;99.90
22698;DHT22;11516;51.612;7.510;2023-05-10T07:34:15;14.20;99.90
22698;DHT22;11516;51.612;7.510;2023-05-10T07:36:41;14.10;99.90
22698;DHT22;11516;51.612;7.510;2023-05-10T07:39:07;14.00;99.90
22698;DHT22;11516;51.612;7.510;2023-05-10T07:41:32;14.10;99.90
22698;DHT22;11516;51.612;7.510;2023-05-10T07:43:58;14.40;99.90
22698;DHT22;11516;51.612;7.510;2023-05-10T07:46:23;14.70;99.90
22698;DHT22;11516;51.612;7.510;2023-05-10T07:48:49;14.50;99.90
22698;DHT22;11516;51.612;7.510;2023-05-10T07:51:14;14.50;99.90
22698;DHT22;11516;51.612;7.510;2023-05-10T07:53:40;14.50;99.90
22698;DHT22;11516;51.612;7.510;2023-05-10T07:56:26;14.60;99.90
22698;DHT22;11516;51.612;7.510;2023-05-10T07:58:53;14.40;99.90
22698;DHT22;11516;51.612;7.510;2023-05-10T08:01:19;14.60;99.90
22698;DHT22;11516;51.612;7.510;2023-05-10T08:03:45;14.90;99.90
22698;DHT22;11516;51.612;7.510;2023-05-10T08:06:11;14.90;99.90
22698;DHT22;11516;51.612;7.510;2023-05-10T08:08:36;15.10;99.90
22698;DHT22;11516;51.612;7.510;2023-05-10T08:11:03;14.90;99.90
22698;DHT22;11516;51.612;7.510;2023-05-10T08:13:29;14.90;99.90
22698;DHT22;11516;51.612;7.510;2023-05-10T08:15:54;14.70;99.90
22698;DHT22;11516;51.612;7.510;2023-05-10T08:18:20;14.60;99.90
22698;DHT22;11516;51.612;7.510;2023-05-10T08:20:46;14.80;99.90
22698;DHT22;11516;51.612;7.510;2023-05-10T08:23:14;14.90;99.90
22698;DHT22;11516;51.612;7.510;2023-05-10T08:25:40;14.90;99.90
22698;DHT22;11516;51.612;7.510;2023-05-10T08:28:05;15.00;99.90
22698;DHT22;11516;51.612;7.510;2023-05-10T08:30:31;15.00;99.90
22698;DHT22;11516;51.612;7.510;2023-05-10T08:32:56;15.00;99.90
22698;DHT22;11516;51.612;7.510;2023-05-10T08:35:22;14.90;99.90
22698;DHT22;11516;51.612;7.510;2023-05-10T08:37:47;14.80;99.90
22698;DHT22;11516;51.612;7.510;2023-05-10T08:40:13;15.00;99.90
22698;DHT22;11516;51.612;7.510;2023-05-10T08:42:44;15.00;99.90
22698;DHT22;11516;51.612;7.510;2023-05-10T08:45:13;15.20;99.90
22698;DHT22;11516;51.612;7.510;2023-05-10T08:47:41;15.20;99.90
22698;DHT22;11516;51.612;7.510;2023-05-10T08:50:07;15.20;99.90
22698;DHT22;11516;51.612;7.510;2023-05-10T08:52:33;15.30;99.90
22698;DHT22;11516;51.612;7.510;2023-05-10T08:55:02;15.20;99.90
22698;DHT22;11516;51.612;7.510;2023-05-10T08:57:33;15.00;99.90
22698;DHT22;11516;51.612;7.510;2023-05-10T09:00:00;14.90;99.90
22698;DHT22;11516;51.612;7.510;2023-05-10T09:02:26;14.70;99.90
22698;DHT22;11516;51.612;7.510;2023-05-10T09:04:52;14.80;99.90
22698;DHT22;11516;51.612;7.510;2023-05-10T09:07:18;14.70;99.90
22698;DHT22;11516;51.612;7.510;2023-05-10T09:09:44;14.70;99.90
22698;DHT22;11516;51.612;7.510;2023-05-10T09:12:11;14.70;99.90
22698;DHT22;11516;51.612;7.510;2023-05-10T09:14:37;14.90;99.90
22698;DHT22;11516;51.612;7.510;2023-05-10T09:17:04;15.30;99.90
22698;DHT22;11516;51.612;7.510;2023-05-10T09:19:29;15.50;99.90
22698;DHT22;11516;51.612;7.510;2023-05-10T09:21:55;15.50;99.90
22698;DHT22;11516;51.612;7.510;2023-05-10T10:23:54;15.60;99.90
22698;DHT22;11516;51.612;7.510;2023-05-10T10:26:20;15.50;99.90
22698;DHT22;11516;51.612;7.510;2023-05-10T10:29:00;15.70;99.90
22698;DHT22;11516;51.612;7.510;2023-05-10T10:31:47;16.00;99.90
22698;DHT22;11516;51.612;7.510;2023-05-10T10:34:26;15.80;99.90
22698;DHT22;11516;51.612;7.510;2023-05-10T10:36:56;15.70;99.90
22698;DHT22;11516;51.612;7.510;2023-05-10T10:39:23;15.90;99.90
22698;DHT22;11516;51.612;7.510;2023-05-10T10:44:23;15.80;99.90
22698;DHT22;11516;51.612;7.510;2023-05-10T10:50:04;15.60;99.90
22698;DHT22;11516;51.612;7.510;2023-05-10T10:52:40;15.70;99.90
22698;DHT22;11516;51.612;7.510;2023-05-10T10:55:14;15.90;99.90
22698;DHT22;11516;51.612;7.510;2023-05-10T11:00:38;16.30;99.90
22698;DHT22;11516;51.612;7.510;2023-05-10T11:03:10;16.10;99.90
22698;DHT22;11516;51.612;7.510;2023-05-10T11:05:41;15.90;99.90
22698;DHT22;11516;51.612;7.510;2023-05-10T11:08:27;15.90;99.90
22698;DHT22;11516;51.612;7.510;2023-05-10T11:11:02;15.60;99.90
22698;DHT22;11516;51.612;7.510;2023-05-10T11:13:40;15.20;99.90
22698;DHT22;11516;51.612;7.510;2023-05-10T11:16:22;14.80;99.90
22698;DHT22;11516;51.612;7.510;2023-05-10T11:19:04;14.80;99.90
22698;DHT22;11516;51.612;7.510;2023-05-10T11:21:31;14.90;99.90
22698;DHT22;11516;51.612;7.510;2023-05-10T11:23:59;15.00;99.90
22698;DHT22;11516;51.612;7.510;2023-05-10T11:26:33;15.20;99.90
22698;DHT22;11516;51.612;7.510;2023-05-10T11:28:59;15.40;99.90
22698;DHT22;11516;51.612;7.510;2023-05-10T11:31:27;15.50;99.90
22698;DHT22;11516;51.612;7.510;2023-05-10T11:33:54;15.50;99.90
22698;DHT22;11516;51.612;7.510;2023-05-10T11:36:27;15.80;99.90
22698;DHT22;11516;51.612;7.510;2023-05-10T11:38:54;16.10;99.90
22698;DHT22;11516;51.612;7.510;2023-05-10T11:41:21;16.40;99.90
22698;DHT22;11516;51.612;7.510;2023-05-10T11:43:49;16.30;99.90
22698;DHT22;11516;51.612;7.510;2023-05-10T11:46:15;16.40;99.90
22698;DHT22;11516;51.612;7.510;2023-05-10T11:48:42;16.40;99.90
22698;DHT22;11516;51.612;7.510;2023-05-10T11:51:09;16.70;99.90
22698;DHT22;11516;51.612;7.510;2023-05-10T11:53:35;16.60;99.90
22698;DHT22;11516;51.612;7.510;2023-05-10T11:56:09;17.00;99.90
22698;DHT22;11516;51.612;7.510;2023-05-10T11:58:36;17.40;99.90
22698;DHT22;11516;51.612;7.510;2023-05-10T12:01:03;17.80;99.90
22698;DHT22;11516;51.612;7.510;2023-05-10T12:03:29;17.90;99.90
22698;DHT22;11516;51.612;7.510;2023-05-10T12:05:55;17.90;99.90
22698;DHT22;11516;51.612;7.510;2023-05-10T12:08:23;17.70;99.90
22698;DHT22;11516;51.612;7.510;2023-05-10T12:10:49;18.20;99.90
22698;DHT22;11516;51.612;7.510;2023-05-10T12:13:15;18.30;99.90
22698;DHT22;11516;51.612;7.510;2023-05-10T12:15:41;18.60;99.90
22698;DHT22;11516;51.612;7.510;2023-05-10T12:18:11;18.60;99.90
22698;DHT22;11516;51.612;7.510;2023-05-10T12:20:37;18.90;99.90
22698;DHT22;11516;51.612;7.510;2023-05-10T12:23:03;19.30;99.90
22698;DHT22;11516;51.612;7.510;2023-05-10T12:25:33;19.30;99.90
22698;DHT22;11516;51.612;7.510;2023-05-10T12:28:03;19.30;99.90
22698;DHT22;11516;51.612;7.510;2023-05-10T12:30:31;19.20;99.90
22698;DHT22;11516;51.612;7.510;2023-05-10T12:33:12;18.70;99.90
22698;DHT22;11516;51.612;7.510;2023-05-10T12:35:52;18.60;99.90
22698;DHT22;11516;51.612;7.510;2023-05-10T12:38:28;18.40;99.90
22698;DHT22;11516;51.612;7.510;2023-05-10T12:41:02;18.60;99.90
22698;DHT22;11516;51.612;7.510;2023-05-10T12:43:28;19.20;99.90
22698;DHT22;11516;51.612;7.510;2023-05-10T12:45:54;19.40;99.90
22698;DHT22;11516;51.612;7.510;2023-05-10T12:48:20;19.30;99.90
22698;DHT22;11516;51.612;7.510;2023-05-10T12:50:46;19.50;99.90
22698;DHT22;11516;51.612;7.510;2023-05-10T12:53:14;19.60;99.90
22698;DHT22;11516;51.612;7.510;2023-05-10T12:55:41;20.00;99.90
22698;DHT22;11516;51.612;7.510;2023-05-10T12:58:07;20.70;99.90
22698;DHT22;11516;51.612;7.510;2023-05-10T13:00:32;20.10;99.90
22698;DHT22;11516;51.612;7.510;2023-05-10T13:02:58;20.00;99.90
22698;DHT22;11516;51.612;7.510;2023-05-10T13:05:23;19.90;99.90
22698;DHT22;11516;51.612;7.510;2023-05-10T13:07:49;19.50;99.90
22698;DHT22;11516;51.612;7.510;2023-05-10T13:10:15;19.20;99.90
22698;DHT22;11516;51.612;7.510;2023-05-10T13:12:41;19.60;99.90
22698;DHT22;11516;51.612;7.510;2023-05-10T13:15:07;19.60;99.90
22698;DHT22;11516;51.612;7.510;2023-05-10T13:17:32;19.70;99.90
22698;DHT22;11516;51.612;7.510;2023-05-10T13:19:58;19.70;99.90
22698;DHT22;11516;51.612;7.510;2023-05-10T13:22:23;19.80;99.90
22698;DHT22;11516;51.612;7.510;2023-05-10T13:24:49;19.90;99.90
22698;DHT22;11516;51.612;7.510;2023-05-10T13:27:14;20.10;99.90
22698;DHT22;11516;51.612;7.510;2023-05-10T13:29:40;19.60;99.90
22698;DHT22;11516;51.612;7.510;2023-05-10T13:32:06;19.70;99.90
22698;DHT22;11516;51.612;7.510;2023-05-10T13:34:31;19.90;99.90
22698;DHT22;11516;51.612;7.510;2023-05-10T13:36:57;19.80;99.90
22698;DHT22;11516;51.612;7.510;2023-05-10T13:39:23;20.00;99.90
22698;DHT22;11516;51.612;7.510;2023-05-10T13:41:48;20.10;99.90
22698;DHT22;11516;51.612;7.510;2023-05-10T13:44:15;20.40;99.90
22698;DHT22;11516;51.612;7.510;2023-05-10T13:46:41;20.00;99.90
22698;DHT22;11516;51.612;7.510;2023-05-10T13:49:08;19.40;99.90
22698;DHT22;11516;51.612;7.510;2023-05-10T13:51:34;19.20;99.90
22698;DHT22;11516;51.612;7.510;2023-05-10T13:54:01;19.00;99.90
22698;DHT22;11516;51.612;7.510;2023-05-10T13:56:27;18.90;99.90
22698;DHT22;11516;51.612;7.510;2023-05-10T13:58:52;18.70;99.90
22698;DHT22;11516;51.612;7.510;2023-05-10T14:01:18;18.60;99.90
22698;DHT22;11516;51.612;7.510;2023-05-10T14:03:43;19.00;99.90
22698;DHT22;11516;51.612;7.510;2023-05-10T14:06:09;19.60;99.90
22698;DHT22;11516;51.612;7.510;2023-05-10T14:08:35;20.10;99.90
22698;DHT22;11516;51.612;7.510;2023-05-10T14:11:01;20.40;99.90
22698;DHT22;11516;51.612;7.510;2023-05-10T14:13:26;20.40;99.90
22698;DHT22;11516;51.612;7.510;2023-05-10T14:15:53;20.00;99.90
22698;DHT22;11516;51.612;7.510;2023-05-10T14:18:19;20.20;99.90
22698;DHT22;11516;51.612;7.510;2023-05-10T14:20:44;20.30;99.90
22698;DHT22;11516;51.612;7.510;2023-05-10T14:23:10;20.40;99.90
22698;DHT22;11516;51.612;7.510;2023-05-10T14:25:36;20.60;99.90
22698;DHT22;11516;51.612;7.510;2023-05-10T14:28:01;20.40;99.90
22698;DHT22;11516;51.612;7.510;2023-05-10T14:30:27;20.40;99.90
22698;DHT22;11516;51.612;7.510;2023-05-10T14:32:52;20.30;99.90
22698;DHT22;11516;51.612;7.510;2023-05-10T14:35:19;20.60;99.90
22698;DHT22;11516;51.612;7.510;2023-05-10T14:37:45;20.90;99.90
22698;DHT22;11516;51.612;7.510;2023-05-10T14:40:10;20.80;99.90
22698;DHT22;11516;51.612;7.510;2023-05-10T14:42:37;20.80;99.90
22698;DHT22;11516;51.612;7.510;2023-05-10T14:45:03;20.50;99.90
22698;DHT22;11516;51.612;7.510;2023-05-10T14:47:29;20.90;99.90
22698;DHT22;11516;51.612;7.510;2023-05-10T14:49:54;21.10;99.90
22698;DHT22;11516;51.612;7.510;2023-05-10T14:52:20;20.80;99.90
22698;DHT22;11516;51.612;7.510;2023-05-10T14:54:45;20.70;99.90
22698;DHT22;11516;51.612;7.510;2023-05-10T14:57:11;20.90;99.90
22698;DHT22;11516;51.612;7.510;2023-05-10T14:59:37;21.20;99.90
22698;DHT22;11516;51.612;7.510;2023-05-10T15:02:02;20.90;99.90
22698;DHT22;11516;51.612;7.510;2023-05-10T15:04:29;20.30;99.90
22698;DHT22;11516;51.612;7.510;2023-05-10T15:06:55;20.30;99.90
22698;DHT22;11516;51.612;7.510;2023-05-10T15:09:24;20.10;99.90
22698;DHT22;11516;51.612;7.510;2023-05-10T15:11:50;20.00;99.90
22698;DHT22;11516;51.612;7.510;2023-05-10T15:14:15;19.80;99.90
22698;DHT22;11516;51.612;7.510;2023-05-10T15:16:41;19.90;99.90
22698;DHT22;11516;51.612;7.510;2023-05-10T15:19:06;20.50;99.90
22698;DHT22;11516;51.612;7.510;2023-05-10T15:21:32;20.90;99.90
22698;DHT22;11516;51.612;7.510;2023-05-10T15:24:04;20.70;99.90
22698;DHT22;11516;51.612;7.510;2023-05-10T15:26:30;20.70;99.90
22698;DHT22;11516;51.612;7.510;2023-05-10T15:28:56;21.10;99.90
22698;DHT22;11516;51.612;7.510;2023-05-10T15:31:21;20.80;99.90
22698;DHT22;11516;51.612;7.510;2023-05-10T15:33:47;20.90;99.90
22698;DHT22;11516;51.612;7.510;2023-05-10T15:36:12;20.70;99.90
22698;DHT22;11516;51.612;7.510;2023-05-10T15:38:38;20.60;99.90
22698;DHT22;11516;51.612;7.510;2023-05-10T15:41:04;20.60;99.90
22698;DHT22;11516;51.612;7.510;2023-05-10T15:43:29;20.60;99.90
22698;DHT22;11516;51.612;7.510;2023-05-10T15:45:55;20.40;99.90
22698;DHT22;11516;51.612;7.510;2023-05-10T15:48:20;20.10;99.90
22698;DHT22;11516;51.612;7.510;2023-05-10T15:50:46;19.90;99.90
22698;DHT22;11516;51.612;7.510;2023-05-10T15:53:11;19.90;99.90
22698;DHT22;11516;51.612;7.510;2023-05-10T15:55:37;19.80;99.90
22698;DHT22;11516;51.612;7.510;2023-05-10T15:58:02;19.90;99.90
22698;DHT22;11516;51.612;7.510;2023-05-10T16:00:28;19.70;99.90
22698;DHT22;11516;51.612;7.510;2023-05-10T16:02:54;19.80;99.90
22698;DHT22;11516;51.612;7.510;2023-05-10T16:05:20;19.70;99.90
22698;DHT22;11516;51.612;7.510;2023-05-10T16:07:45;19.70;99.90
22698;DHT22;11516;51.612;7.510;2023-05-10T16:10:11;19.60;99.90
22698;DHT22;11516;51.612;7.510;2023-05-10T16:12:37;19.70;99.90
22698;DHT22;11516;51.612;7.510;2023-05-10T16:15:03;19.40;99.90
22698;DHT22;11516;51.612;7.510;2023-05-10T16:17:29;19.50;99.90
22698;DHT22;11516;51.612;7.510;2023-05-10T16:19:55;19.10;99.90
22698;DHT22;11516;51.612;7.510;2023-05-10T16:22:20;18.90;99.90
22698;DHT22;11516;51.612;7.510;2023-05-10T16:24:47;18.90;99.90
22698;DHT22;11516;51.612;7.510;2023-05-10T16:27:12;19.10;99.90
22698;DHT22;11516;51.612;7.510;2023-05-10T16:29:38;19.30;99.90
22698;DHT22;11516;51.612;7.510;2023-05-10T16:32:03;19.20;99.90
22698;DHT22;11516;51.612;7.510;2023-05-10T16:34:29;19.10;99.90
22698;DHT22;11516;51.612;7.510;2023-05-10T16:36:55;19.10;99.90
22698;DHT22;11516;51.612;7.510;2023-05-10T16:39:20;19.30;99.90
22698;DHT22;11516;51.612;7.510;2023-05-10T16:41:46;18.90;99.90
22698;DHT22;11516;51.612;7.510;2023-05-10T16:44:11;19.00;99.90
22698;DHT22;11516;51.612;7.510;2023-05-10T16:46:37;18.80;99.90
22698;DHT22;11516;51.612;7.510;2023-05-10T16:49:02;18.70;99.90
22698;DHT22;11516;51.612;7.510;2023-05-10T16:51:28;18.30;99.90
22698;DHT22;11516;51.612;7.510;2023-05-10T16:53:54;18.30;99.90
22698;DHT22;11516;51.612;7.510;2023-05-10T16:56:20;18.20;99.90